sensor_id;sensor_type;location;lat;lon;timestamp;pressure;altitude;pressure_sealevel;temperature;humidity
79707;BME280;69200;53.612;-2.416;2023-08-08T00:01:10;99890.56;;;12.95;79.38
79707;BME280;69200;53.612;-2.416;2023-08-08T00:03:35;99889.84;;;13.04;78.38
79707;BME280;69200;53.612;-2.416;2023-08-08T00:06:01;99886.38;;;13.09;78.36
79707;BME280;69200;53.612;-2.416;2023-08-08T00:08:26;99886.66;;;13.12;78.23
79707;BME280;69200;53.612;-2.416;2023-08-08T00:10:51;99890.84;;;12.98;78.60
79707;BME280;69200;53.612;-2.416;2023-08-08T00:13:17;99883.78;;;12.97;78.76
79707;BME280;69200;53.612;-2.416;2023-08-08T00:15:42;99882.28;;;12.84;79.98
79707;BME280;69200;53.612;-2.416;2023-08-08T00:18:08;99883.28;;;12.78;81.55
79707;BME280;69200;53.612;-2.416;2023-08-08T00:20:33;99879.78;;;12.83;82.69
79707;BME280;69200;53.612;-2.416;2023-08-08T00:22:59;99886.84;;;12.79;83.58
79707;BME280;69200;53.612;-2.416;2023-08-08T00:25:24;99878.03;;;12.72;84.96
79707;BME280;69200;53.612;-2.416;2023-08-08T00:27:50;99869.84;;;12.72;85.43
79707;BME280;69200;53.612;-2.416;2023-08-08T00:30:15;99883.16;;;12.46;86.69
79707;BME280;69200;53.612;-2.416;2023-08-08T00:32:41;99881.13;;;12.37;86.68
79707;BME280;69200;53.612;-2.416;2023-08-08T00:35:06;99881.88;;;12.32;87.32
79707;BME280;69200;53.612;-2.416;2023-08-08T00:37:32;99881.56;;;12.50;87.94
79707;BME280;69200;53.612;-2.416;2023-08-08T00:39:58;99871.44;;;12.46;87.99
79707;BME280;69200;53.612;-2.416;2023-08-08T00:42:23;99874.81;;;12.53;87.64
79707;BME280;69200;53.612;-2.416;2023-08-08T00:44:48;99871.00;;;12.54;87.59
79707;BME280;69200;53.612;-2.416;2023-08-08T00:47:14;99863.84;;;12.48;87.62
79707;BME280;69200;53.612;-2.416;2023-08-08T00:49:39;99872.19;;;12.41;89.36
79707;BME280;69200;53.612;-2.416;2023-08-08T00:52:06;99866.13;;;12.56;88.80
79707;BME280;69200;53.612;-2.416;2023-08-08T00:54:32;99867.50;;;12.58;88.82
79707;BME280;69200;53.612;-2.416;2023-08-08T00:56:58;99862.78;;;12.71;88.46
79707;BME280;69200;53.612;-2.416;2023-08-08T00:59:23;99862.41;;;12.84;87.97
79707;BME280;69200;53.612;-2.416;2023-08-08T01:01:49;99859.78;;;12.94;86.87
79707;BME280;69200;53.612;-2.416;2023-08-08T01:04:14;99852.50;;;13.00;86.55
79707;BME280;69200;53.612;-2.416;2023-08-08T01:06:48;99844.78;;;12.92;86.83
79707;BME280;69200;53.612;-2.416;2023-08-08T01:09:32;99836.47;;;12.81;88.60
79707;BME280;69200;53.612;-2.416;2023-08-08T01:11:59;99832.00;;;12.97;88.90
79707;BME280;69200;53.612;-2.416;2023-08-08T01:14:27;99824.19;;;13.06;88.91
79707;BME280;69200;53.612;-2.416;2023-08-08T01:16:55;99829.09;;;12.77;87.56
79707;BME280;69200;53.612;-2.416;2023-08-08T01:19:28;99834.16;;;12.68;87.15
79707;BME280;69200;53.612;-2.416;2023-08-08T01:21:57;99830.81;;;12.61;87.89
79707;BME280;69200;53.612;-2.416;2023-08-08T01:24:24;99824.09;;;12.69;88.89
79707;BME280;69200;53.612;-2.416;2023-08-08T01:26:55;99821.28;;;12.85;90.22
79707;BME280;69200;53.612;-2.416;2023-08-08T01:29:20;99810.47;;;12.69;88.44
79707;BME280;69200;53.612;-2.416;2023-08-08T01:31:46;99812.94;;;12.97;87.02
79707;BME280;69200;53.612;-2.416;2023-08-08T01:34:11;99813.00;;;13.02;85.75
79707;BME280;69200;53.612;-2.416;2023-08-08T01:39:30;99802.16;;;12.80;86.90
79707;BME280;69200;53.612;-2.416;2023-08-08T01:41:56;99808.50;;;12.86;89.57
79707;BME280;69200;53.612;-2.416;2023-08-08T01:44:24;99807.41;;;12.87;89.89
79707;BME280;69200;53.612;-2.416;2023-08-08T01:46:51;99808.59;;;12.96;89.51
79707;BME280;69200;53.612;-2.416;2023-08-08T01:49:17;99804.16;;;13.17;88.67
79707;BME280;69200;53.612;-2.416;2023-08-08T01:51:42;99794.50;;;13.04;88.65
79707;BME280;69200;53.612;-2.416;2023-08-08T01:54:08;99783.44;;;12.89;88.54
79707;BME280;69200;53.612;-2.416;2023-08-08T01:56:33;99792.69;;;12.61;89.82
79707;BME280;69200;53.612;-2.416;2023-08-08T01:58:59;99801.34;;;12.80;89.69
79707;BME280;69200;53.612;-2.416;2023-08-08T02:01:24;99801.59;;;12.78;90.25
79707;BME280;69200;53.612;-2.416;2023-08-08T02:03:49;99798.34;;;12.32;89.99
79707;BME280;69200;53.612;-2.416;2023-08-08T02:06:15;99803.53;;;12.34;89.95
79707;BME280;69200;53.612;-2.416;2023-08-08T02:08:40;99807.25;;;12.50;89.54
79707;BME280;69200;53.612;-2.416;2023-08-08T02:11:06;99808.06;;;12.50;89.85
79707;BME280;69200;53.612;-2.416;2023-08-08T02:13:31;99800.16;;;12.05;90.22
79707;BME280;69200;53.612;-2.416;2023-08-08T02:15:56;99795.72;;;11.99;91.23
79707;BME280;69200;53.612;-2.416;2023-08-08T02:18:22;99794.81;;;11.93;91.30
79707;BME280;69200;53.612;-2.416;2023-08-08T02:20:47;99788.97;;;12.23;92.55
79707;BME280;69200;53.612;-2.416;2023-08-08T02:23:13;99794.06;;;12.37;92.34
79707;BME280;69200;53.612;-2.416;2023-08-08T02:25:38;99792.25;;;12.47;92.65
79707;BME280;69200;53.612;-2.416;2023-08-08T02:28:04;99787.63;;;12.48;92.00
79707;BME280;69200;53.612;-2.416;2023-08-08T02:30:29;99783.00;;;12.48;90.85
79707;BME280;69200;53.612;-2.416;2023-08-08T02:32:55;99782.28;;;12.31;89.71
79707;BME280;69200;53.612;-2.416;2023-08-08T02:35:20;99780.94;;;12.12;90.60
79707;BME280;69200;53.612;-2.416;2023-08-08T02:37:45;99786.38;;;12.12;90.80
79707;BME280;69200;53.612;-2.416;2023-08-08T02:40:11;99787.00;;;11.97;90.30
79707;BME280;69200;53.612;-2.416;2023-08-08T02:42:36;99784.03;;;11.98;90.61
79707;BME280;69200;53.612;-2.416;2023-08-08T02:45:02;99791.47;;;11.86;91.83
79707;BME280;69200;53.612;-2.416;2023-08-08T02:47:27;99785.38;;;11.79;92.56
79707;BME280;69200;53.612;-2.416;2023-08-08T02:49:52;99784.53;;;11.95;93.50
79707;BME280;69200;53.612;-2.416;2023-08-08T02:52:18;99771.84;;;12.23;93.73
79707;BME280;69200;53.612;-2.416;2023-08-08T02:54:43;99776.66;;;12.38;93.08
79707;BME280;69200;53.612;-2.416;2023-08-08T02:57:08;99779.41;;;12.43;90.94
79707;BME280;69200;53.612;-2.416;2023-08-08T02:59:37;99771.25;;;12.43;90.91
79707;BME280;69200;53.612;-2.416;2023-08-08T03:02:03;99773.84;;;12.54;92.06
79707;BME280;69200;53.612;-2.416;2023-08-08T03:04:29;99777.09;;;12.29;91.40
79707;BME280;69200;53.612;-2.416;2023-08-08T03:06:54;99768.31;;;12.49;92.66
79707;BME280;69200;53.612;-2.416;2023-08-08T03:09:19;99775.47;;;12.55;91.96
79707;BME280;69200;53.612;-2.416;2023-08-08T03:11:45;99775.94;;;12.47;90.55
79707;BME280;69200;53.612;-2.416;2023-08-08T03:14:10;99773.56;;;12.78;90.91
79707;BME280;69200;53.612;-2.416;2023-08-08T03:16:35;99765.56;;;12.98;88.46
79707;BME280;69200;53.612;-2.416;2023-08-08T03:19:01;99771.81;;;12.99;88.58
79707;BME280;69200;53.612;-2.416;2023-08-08T03:21:26;99760.19;;;13.03;87.97
79707;BME280;69200;53.612;-2.416;2023-08-08T03:23:53;99765.69;;;13.08;87.12
79707;BME280;69200;53.612;-2.416;2023-08-08T03:26:18;99774.09;;;13.07;87.69
79707;BME280;69200;53.612;-2.416;2023-08-08T03:28:43;99765.47;;;12.88;86.53
79707;BME280;69200;53.612;-2.416;2023-08-08T03:31:09;99768.13;;;12.83;88.11
79707;BME280;69200;53.612;-2.416;2023-08-08T03:33:34;99773.91;;;12.86;88.80
79707;BME280;69200;53.612;-2.416;2023-08-08T03:35:59;99772.88;;;12.66;88.66
79707;BME280;69200;53.612;-2.416;2023-08-08T03:38:25;99769.56;;;12.37;87.84
79707;BME280;69200;53.612;-2.416;2023-08-08T03:40:50;99771.75;;;12.62;89.70
79707;BME280;69200;53.612;-2.416;2023-08-08T03:43:16;99766.84;;;12.64;90.59
79707;BME280;69200;53.612;-2.416;2023-08-08T03:45:41;99759.78;;;12.41;88.85
79707;BME280;69200;53.612;-2.416;2023-08-08T03:48:06;99751.78;;;12.07;89.11
79707;BME280;69200;53.612;-2.416;2023-08-08T03:50:32;99757.84;;;11.92;91.43
79707;BME280;69200;53.612;-2.416;2023-08-08T03:52:57;99754.41;;;11.80;92.24
79707;BME280;69200;53.612;-2.416;2023-08-08T03:55:23;99762.47;;;12.14;92.77
79707;BME280;69200;53.612;-2.416;2023-08-08T03:57:48;99764.13;;;12.15;92.00
79707;BME280;69200;53.612;-2.416;2023-08-08T04:00:14;99753.03;;;11.99;91.30
79707;BME280;69200;53.612;-2.416;2023-08-08T04:02:39;99755.88;;;12.10;92.44
79707;BME280;69200;53.612;-2.416;2023-08-08T04:05:05;99756.19;;;11.91;91.62
79707;BME280;69200;53.612;-2.416;2023-08-08T04:07:30;99764.34;;;11.91;92.76
79707;BME280;69200;53.612;-2.416;2023-08-08T04:09:56;99756.38;;;11.85;91.50
79707;BME280;69200;53.612;-2.416;2023-08-08T04:12:21;99759.34;;;11.83;92.23
79707;BME280;69200;53.612;-2.416;2023-08-08T04:14:47;99743.69;;;11.73;92.12
79707;BME280;69200;53.612;-2.416;2023-08-08T04:17:12;99744.31;;;11.97;93.54
79707;BME280;69200;53.612;-2.416;2023-08-08T04:19:38;99750.25;;;12.16;93.90
79707;BME280;69200;53.612;-2.416;2023-08-08T04:22:03;99740.94;;;12.34;93.96
79707;BME280;69200;53.612;-2.416;2023-08-08T04:24:29;99745.44;;;12.45;93.44
79707;BME280;69200;53.612;-2.416;2023-08-08T04:26:54;99738.13;;;12.51;92.31
79707;BME280;69200;53.612;-2.416;2023-08-08T04:29:19;99742.63;;;12.62;91.47
79707;BME280;69200;53.612;-2.416;2023-08-08T04:31:45;99732.03;;;12.66;90.67
79707;BME280;69200;53.612;-2.416;2023-08-08T04:34:10;99736.97;;;12.69;91.08
79707;BME280;69200;53.612;-2.416;2023-08-08T04:36:35;99736.50;;;12.50;91.91
79707;BME280;69200;53.612;-2.416;2023-08-08T04:39:01;99746.28;;;12.51;91.87
79707;BME280;69200;53.612;-2.416;2023-08-08T04:41:26;99749.28;;;12.49;92.72
79707;BME280;69200;53.612;-2.416;2023-08-08T04:43:51;99745.81;;;12.54;92.40
79707;BME280;69200;53.612;-2.416;2023-08-08T04:46:17;99747.69;;;12.53;92.02
79707;BME280;69200;53.612;-2.416;2023-08-08T04:48:43;99730.56;;;12.53;91.88
79707;BME280;69200;53.612;-2.416;2023-08-08T04:51:08;99741.00;;;12.39;91.28
79707;BME280;69200;53.612;-2.416;2023-08-08T04:53:34;99738.53;;;12.38;90.13
79707;BME280;69200;53.612;-2.416;2023-08-08T04:55:59;99737.53;;;12.22;90.62
79707;BME280;69200;53.612;-2.416;2023-08-08T04:58:24;99736.66;;;12.38;93.01
79707;BME280;69200;53.612;-2.416;2023-08-08T05:00:50;99742.56;;;12.57;92.78
79707;BME280;69200;53.612;-2.416;2023-08-08T05:03:18;99739.06;;;12.62;91.32
79707;BME280;69200;53.612;-2.416;2023-08-08T05:05:43;99739.06;;;12.62;91.49
79707;BME280;69200;53.612;-2.416;2023-08-08T05:08:13;99733.47;;;12.73;92.71
79707;BME280;69200;53.612;-2.416;2023-08-08T05:10:38;99742.56;;;12.57;90.65
79707;BME280;69200;53.612;-2.416;2023-08-08T05:13:04;99739.13;;;12.18;91.49
79707;BME280;69200;53.612;-2.416;2023-08-08T05:15:29;99739.13;;;12.18;92.26
79707;BME280;69200;53.612;-2.416;2023-08-08T05:17:55;99739.63;;;12.15;92.46
79707;BME280;69200;53.612;-2.416;2023-08-08T05:20:21;99731.28;;;12.43;93.95
79707;BME280;69200;53.612;-2.416;2023-08-08T05:22:46;99730.38;;;12.65;93.61
79707;BME280;69200;53.612;-2.416;2023-08-08T05:25:12;99732.09;;;12.71;93.44
79707;BME280;69200;53.612;-2.416;2023-08-08T05:27:38;99737.63;;;12.81;92.82
79707;BME280;69200;53.612;-2.416;2023-08-08T05:30:04;99739.25;;;12.82;92.22
79707;BME280;69200;53.612;-2.416;2023-08-08T05:32:29;99725.72;;;12.87;89.93
79707;BME280;69200;53.612;-2.416;2023-08-08T05:34:55;99726.69;;;12.27;91.74
79707;BME280;69200;53.612;-2.416;2023-08-08T05:37:22;99723.81;;;12.60;92.56
79707;BME280;69200;53.612;-2.416;2023-08-08T05:39:47;99730.38;;;12.65;92.01
79707;BME280;69200;53.612;-2.416;2023-08-08T05:42:12;99723.44;;;12.79;92.29
79707;BME280;69200;53.612;-2.416;2023-08-08T05:44:38;99734.25;;;12.69;90.96
79707;BME280;69200;53.612;-2.416;2023-08-08T05:47:03;99733.19;;;12.75;90.84
79707;BME280;69200;53.612;-2.416;2023-08-08T05:49:29;99727.28;;;12.83;91.19
79707;BME280;69200;53.612;-2.416;2023-08-08T05:51:54;99733.75;;;12.50;91.56
79707;BME280;69200;53.612;-2.416;2023-08-08T05:54:19;99730.03;;;12.56;91.73
79707;BME280;69200;53.612;-2.416;2023-08-08T05:56:45;99717.34;;;12.67;91.24
79707;BME280;69200;53.612;-2.416;2023-08-08T05:59:11;99718.91;;;12.89;89.78
79707;BME280;69200;53.612;-2.416;2023-08-08T06:01:36;99715.72;;;13.30;88.98
79707;BME280;69200;53.612;-2.416;2023-08-08T06:04:02;99720.03;;;13.21;88.82
79707;BME280;69200;53.612;-2.416;2023-08-08T06:06:28;99715.28;;;13.43;88.20
79707;BME280;69200;53.612;-2.416;2023-08-08T06:08:54;99721.19;;;14.40;87.92
79707;BME280;69200;53.612;-2.416;2023-08-08T06:11:19;99719.16;;;15.33;81.41
79707;BME280;69200;53.612;-2.416;2023-08-08T06:13:46;99719.28;;;16.58;76.88
79707;BME280;69200;53.612;-2.416;2023-08-08T06:16:12;99714.81;;;16.77;74.70
79707;BME280;69200;53.612;-2.416;2023-08-08T06:18:40;99713.47;;;17.43;72.41
79707;BME280;69200;53.612;-2.416;2023-08-08T06:21:05;99710.06;;;17.80;70.99
79707;BME280;69200;53.612;-2.416;2023-08-08T06:23:31;99707.16;;;16.74;73.10
79707;BME280;69200;53.612;-2.416;2023-08-08T06:25:56;99700.75;;;16.44;74.36
79707;BME280;69200;53.612;-2.416;2023-08-08T06:28:22;99705.06;;;16.56;75.89
79707;BME280;69200;53.612;-2.416;2023-08-08T06:30:47;99694.66;;;16.97;74.25
79707;BME280;69200;53.612;-2.416;2023-08-08T06:33:13;99694.28;;;17.09;72.13
79707;BME280;69200;53.612;-2.416;2023-08-08T06:35:38;99695.38;;;17.08;71.65
79707;BME280;69200;53.612;-2.416;2023-08-08T06:38:04;99698.84;;;16.84;71.80
79707;BME280;69200;53.612;-2.416;2023-08-08T06:40:29;99706.22;;;17.52;70.22
79707;BME280;69200;53.612;-2.416;2023-08-08T06:42:55;99708.53;;;17.69;69.62
79707;BME280;69200;53.612;-2.416;2023-08-08T06:45:21;99716.13;;;18.67;67.06
79707;BME280;69200;53.612;-2.416;2023-08-08T06:47:46;99718.34;;;19.03;64.00
79707;BME280;69200;53.612;-2.416;2023-08-08T06:50:12;99710.63;;;17.82;65.88
79707;BME280;69200;53.612;-2.416;2023-08-08T06:52:37;99709.22;;;19.21;66.19
79707;BME280;69200;53.612;-2.416;2023-08-08T06:55:03;99715.59;;;19.96;61.46
79707;BME280;69200;53.612;-2.416;2023-08-08T06:57:32;99715.16;;;19.89;58.75
79707;BME280;69200;53.612;-2.416;2023-08-08T06:59:57;99720.16;;;19.87;59.28
79707;BME280;69200;53.612;-2.416;2023-08-08T07:02:23;99709.28;;;20.73;58.54
79707;BME280;69200;53.612;-2.416;2023-08-08T07:04:48;99721.50;;;21.70;53.55
79707;BME280;69200;53.612;-2.416;2023-08-08T07:07:13;99725.06;;;22.50;51.29
79707;BME280;69200;53.612;-2.416;2023-08-08T07:12:04;99733.50;;;22.53;51.81
79707;BME280;69200;53.612;-2.416;2023-08-08T07:14:30;99734.72;;;22.21;53.82
79707;BME280;69200;53.612;-2.416;2023-08-08T07:16:55;99730.72;;;21.65;55.29
79707;BME280;69200;53.612;-2.416;2023-08-08T07:19:21;99731.31;;;21.09;56.26
79707;BME280;69200;53.612;-2.416;2023-08-08T07:21:47;99732.72;;;20.34;57.55
79707;BME280;69200;53.612;-2.416;2023-08-08T07:24:12;99734.91;;;20.73;54.71
79707;BME280;69200;53.612;-2.416;2023-08-08T07:26:38;99737.41;;;20.33;58.53
79707;BME280;69200;53.612;-2.416;2023-08-08T07:29:04;99730.25;;;19.64;58.81
79707;BME280;69200;53.612;-2.416;2023-08-08T07:31:31;99741.34;;;19.07;60.90
79707;BME280;69200;53.612;-2.416;2023-08-08T07:33:57;99736.91;;;18.92;61.65
79707;BME280;69200;53.612;-2.416;2023-08-08T07:36:22;99734.41;;;19.28;59.47
79707;BME280;69200;53.612;-2.416;2023-08-08T07:38:47;99719.47;;;19.35;60.77
79707;BME280;69200;53.612;-2.416;2023-08-08T07:41:13;99722.94;;;20.00;58.98
79707;BME280;69200;53.612;-2.416;2023-08-08T07:43:38;99716.88;;;20.39;57.99
79707;BME280;69200;53.612;-2.416;2023-08-08T07:46:04;99710.88;;;20.37;57.87
79707;BME280;69200;53.612;-2.416;2023-08-08T07:48:29;99710.16;;;20.82;55.50
79707;BME280;69200;53.612;-2.416;2023-08-08T07:50:55;99710.38;;;20.85;56.13
79707;BME280;69200;53.612;-2.416;2023-08-08T07:53:20;99717.34;;;20.69;55.66
79707;BME280;69200;53.612;-2.416;2023-08-08T07:55:45;99711.50;;;19.79;58.01
79707;BME280;69200;53.612;-2.416;2023-08-08T07:58:12;99709.78;;;19.37;59.46
79707;BME280;69200;53.612;-2.416;2023-08-08T08:00:37;99709.56;;;19.01;60.44
79707;BME280;69200;53.612;-2.416;2023-08-08T08:03:04;99716.16;;;19.00;61.21
79707;BME280;69200;53.612;-2.416;2023-08-08T08:05:29;99724.22;;;18.78;62.05
79707;BME280;69200;53.612;-2.416;2023-08-08T08:07:55;99720.47;;;19.06;61.04
79707;BME280;69200;53.612;-2.416;2023-08-08T08:10:20;99710.97;;;19.31;61.58
79707;BME280;69200;53.612;-2.416;2023-08-08T08:12:46;99710.28;;;19.39;60.39
79707;BME280;69200;53.612;-2.416;2023-08-08T08:15:11;99718.38;;;19.49;59.86
79707;BME280;69200;53.612;-2.416;2023-08-08T08:17:37;99714.88;;;19.44;60.42
79707;BME280;69200;53.612;-2.416;2023-08-08T08:20:03;99710.31;;;18.88;61.31
79707;BME280;69200;53.612;-2.416;2023-08-08T08:22:31;99699.84;;;19.22;62.05
79707;BME280;69200;53.612;-2.416;2023-08-08T08:24:57;99704.22;;;19.23;60.43
79707;BME280;69200;53.612;-2.416;2023-08-08T08:27:22;99710.59;;;19.38;60.06
79707;BME280;69200;53.612;-2.416;2023-08-08T08:29:47;99709.13;;;18.94;61.62
79707;BME280;69200;53.612;-2.416;2023-08-08T08:32:13;99702.94;;;18.45;63.37
79707;BME280;69200;53.612;-2.416;2023-08-08T08:34:38;99701.63;;;18.62;62.58
79707;BME280;69200;53.612;-2.416;2023-08-08T08:37:04;99709.56;;;18.21;64.86
79707;BME280;69200;53.612;-2.416;2023-08-08T08:39:29;99706.06;;;18.39;64.52
79707;BME280;69200;53.612;-2.416;2023-08-08T08:41:58;99702.66;;;18.66;64.04
79707;BME280;69200;53.612;-2.416;2023-08-08T08:44:27;99705.50;;;18.18;63.57
79707;BME280;69200;53.612;-2.416;2023-08-08T08:46:55;99698.78;;;18.48;63.28
79707;BME280;69200;53.612;-2.416;2023-08-08T08:49:22;99706.97;;;18.91;63.20
79707;BME280;69200;53.612;-2.416;2023-08-08T08:51:49;99696.22;;;19.08;61.02
79707;BME280;69200;53.612;-2.416;2023-08-08T08:54:14;99694.41;;;19.04;60.55
79707;BME280;69200;53.612;-2.416;2023-08-08T08:56:41;99685.09;;;19.32;60.83
79707;BME280;69200;53.612;-2.416;2023-08-08T08:59:07;99682.75;;;19.58;60.96
79707;BME280;69200;53.612;-2.416;2023-08-08T09:01:33;99672.75;;;19.62;59.54
79707;BME280;69200;53.612;-2.416;2023-08-08T09:03:58;99671.59;;;19.49;57.30
79707;BME280;69200;53.612;-2.416;2023-08-08T09:06:24;99679.31;;;19.34;58.10
79707;BME280;69200;53.612;-2.416;2023-08-08T09:08:50;99678.41;;;19.06;61.35
79707;BME280;69200;53.612;-2.416;2023-08-08T09:11:15;99682.75;;;18.55;59.45
79707;BME280;69200;53.612;-2.416;2023-08-08T09:13:41;99679.31;;;18.26;61.29
79707;BME280;69200;53.612;-2.416;2023-08-08T09:16:07;99680.56;;;18.33;60.59
79707;BME280;69200;53.612;-2.416;2023-08-08T09:18:34;99675.25;;;18.61;60.28
79707;BME280;69200;53.612;-2.416;2023-08-08T09:20:59;99676.63;;;19.28;60.13
79707;BME280;69200;53.612;-2.416;2023-08-08T09:23:25;99678.25;;;19.62;59.82
79707;BME280;69200;53.612;-2.416;2023-08-08T09:25:50;99672.84;;;19.84;59.31
79707;BME280;69200;53.612;-2.416;2023-08-08T09:28:16;99681.31;;;19.74;59.52
79707;BME280;69200;53.612;-2.416;2023-08-08T09:30:42;99678.88;;;19.40;59.08
79707;BME280;69200;53.612;-2.416;2023-08-08T09:33:07;99677.75;;;19.27;60.07
79707;BME280;69200;53.612;-2.416;2023-08-08T09:35:33;99674.56;;;18.88;60.80
79707;BME280;69200;53.612;-2.416;2023-08-08T09:37:59;99670.50;;;18.66;60.87
79707;BME280;69200;53.612;-2.416;2023-08-08T09:40:24;99666.78;;;18.38;62.46
79707;BME280;69200;53.612;-2.416;2023-08-08T09:42:53;99670.84;;;18.60;62.83
79707;BME280;69200;53.612;-2.416;2023-08-08T09:45:19;99669.97;;;18.64;61.21
79707;BME280;69200;53.612;-2.416;2023-08-08T09:47:45;99657.81;;;18.70;61.89
79707;BME280;69200;53.612;-2.416;2023-08-08T09:50:11;99662.06;;;18.95;61.29
79707;BME280;69200;53.612;-2.416;2023-08-08T09:52:37;99669.97;;;18.83;62.06
79707;BME280;69200;53.612;-2.416;2023-08-08T09:55:06;99666.84;;;18.33;63.35
79707;BME280;69200;53.612;-2.416;2023-08-08T09:57:32;99676.94;;;18.38;62.67
79707;BME280;69200;53.612;-2.416;2023-08-08T09:59:58;99685.72;;;18.40;62.74
79707;BME280;69200;53.612;-2.416;2023-08-08T10:02:23;99688.16;;;18.23;60.68
79707;BME280;69200;53.612;-2.416;2023-08-08T10:04:49;99700.47;;;18.44;60.33
79707;BME280;69200;53.612;-2.416;2023-08-08T10:07:16;99705.69;;;18.64;60.31
79707;BME280;69200;53.612;-2.416;2023-08-08T10:09:41;99716.16;;;19.00;59.23
79707;BME280;69200;53.612;-2.416;2023-08-08T10:12:08;99703.25;;;19.47;58.22
79707;BME280;69200;53.612;-2.416;2023-08-08T10:14:37;99700.59;;;19.28;57.42
79707;BME280;69200;53.612;-2.416;2023-08-08T10:17:04;99693.22;;;18.91;57.63
79707;BME280;69200;53.612;-2.416;2023-08-08T10:19:30;99690.38;;;18.96;56.80
79707;BME280;69200;53.612;-2.416;2023-08-08T10:22:00;99683.31;;;18.52;59.39
79707;BME280;69200;53.612;-2.416;2023-08-08T10:24:35;99685.56;;;18.50;59.90
79707;BME280;69200;53.612;-2.416;2023-08-08T10:27:02;99682.94;;;18.59;60.02
79707;BME280;69200;53.612;-2.416;2023-08-08T10:29:31;99682.19;;;19.10;59.80
79707;BME280;69200;53.612;-2.416;2023-08-08T10:32:02;99679.66;;;19.13;59.03
79707;BME280;69200;53.612;-2.416;2023-08-08T10:34:57;99672.69;;;19.02;59.95
79707;BME280;69200;53.612;-2.416;2023-08-08T10:37:26;99667.88;;;19.26;57.54
79707;BME280;69200;53.612;-2.416;2023-08-08T10:39:58;99670.63;;;19.40;57.65
79707;BME280;69200;53.612;-2.416;2023-08-08T10:42:25;99669.53;;;19.55;57.71
79707;BME280;69200;53.612;-2.416;2023-08-08T10:44:53;99667.97;;;19.81;55.75
79707;BME280;69200;53.612;-2.416;2023-08-08T10:47:34;99652.75;;;19.84;55.42
79707;BME280;69200;53.612;-2.416;2023-08-08T10:50:04;99657.47;;;19.83;54.99
79707;BME280;69200;53.612;-2.416;2023-08-08T10:52:32;99668.03;;;19.63;56.74
79707;BME280;69200;53.612;-2.416;2023-08-08T10:55:01;99660.50;;;19.96;55.66
79707;BME280;69200;53.612;-2.416;2023-08-08T10:57:27;99669.06;;;20.22;54.76
79707;BME280;69200;53.612;-2.416;2023-08-08T10:59:53;99664.38;;;19.95;53.64
79707;BME280;69200;53.612;-2.416;2023-08-08T11:02:20;99674.34;;;20.18;53.36
79707;BME280;69200;53.612;-2.416;2023-08-08T11:04:46;99666.63;;;19.93;54.09
79707;BME280;69200;53.612;-2.416;2023-08-08T11:07:15;99665.41;;;19.99;54.53
79707;BME280;69200;53.612;-2.416;2023-08-08T11:09:42;99672.00;;;19.56;54.60
79707;BME280;69200;53.612;-2.416;2023-08-08T11:12:13;99666.78;;;19.41;57.14
79707;BME280;69200;53.612;-2.416;2023-08-08T11:14:39;99668.81;;;19.36;54.78
79707;BME280;69200;53.612;-2.416;2023-08-08T11:17:04;99670.75;;;19.49;55.39
79707;BME280;69200;53.612;-2.416;2023-08-08T11:19:30;99672.44;;;19.17;56.63
79707;BME280;69200;53.612;-2.416;2023-08-08T11:21:57;99670.00;;;19.29;55.65
79707;BME280;69200;53.612;-2.416;2023-08-08T11:24:22;99669.34;;;19.05;56.58
79707;BME280;69200;53.612;-2.416;2023-08-08T11:26:47;99665.81;;;19.32;56.00
79707;BME280;69200;53.612;-2.416;2023-08-08T11:29:13;99667.09;;;19.07;56.13
79707;BME280;69200;53.612;-2.416;2023-08-08T11:31:38;99668.56;;;19.65;54.33
79707;BME280;69200;53.612;-2.416;2023-08-08T11:34:04;99680.84;;;19.53;53.44
79707;BME280;69200;53.612;-2.416;2023-08-08T11:36:32;99669.28;;;19.24;54.59
79707;BME280;69200;53.612;-2.416;2023-08-08T11:39:00;99671.06;;;19.47;54.60
79707;BME280;69200;53.612;-2.416;2023-08-08T11:41:25;99667.41;;;19.52;54.52
79707;BME280;69200;53.612;-2.416;2023-08-08T11:43:51;99667.47;;;19.33;54.06
79707;BME280;69200;53.612;-2.416;2023-08-08T11:46:18;99655.59;;;19.05;54.72
79707;BME280;69200;53.612;-2.416;2023-08-08T11:48:46;99655.56;;;19.38;55.10
79707;BME280;69200;53.612;-2.416;2023-08-08T11:51:14;99654.63;;;19.28;54.87
79707;BME280;69200;53.612;-2.416;2023-08-08T11:53:51;99643.13;;;19.26;54.98
79707;BME280;69200;53.612;-2.416;2023-08-08T11:56:18;99634.69;;;19.92;53.71
79707;BME280;69200;53.612;-2.416;2023-08-08T11:58:44;99636.34;;;19.93;52.85
79707;BME280;69200;53.612;-2.416;2023-08-08T12:01:10;99641.72;;;19.56;51.87
79707;BME280;69200;53.612;-2.416;2023-08-08T12:03:39;99646.72;;;19.08;54.54
79707;BME280;69200;53.612;-2.416;2023-08-08T12:06:14;99650.97;;;19.33;53.56
79707;BME280;69200;53.612;-2.416;2023-08-08T12:08:41;99645.16;;;19.48;53.79
79707;BME280;69200;53.612;-2.416;2023-08-08T12:11:08;99646.50;;;19.51;52.88
79707;BME280;69200;53.612;-2.416;2023-08-08T12:13:37;99643.66;;;19.42;53.46
79707;BME280;69200;53.612;-2.416;2023-08-08T12:16:03;99639.16;;;19.46;51.69
79707;BME280;69200;53.612;-2.416;2023-08-08T12:18:29;99649.94;;;19.29;52.55
79707;BME280;69200;53.612;-2.416;2023-08-08T12:20:55;99648.41;;;19.37;52.13
79707;BME280;69200;53.612;-2.416;2023-08-08T12:23:20;99659.78;;;19.16;52.07
79707;BME280;69200;53.612;-2.416;2023-08-08T12:25:46;99652.44;;;19.12;52.99
79707;BME280;69200;53.612;-2.416;2023-08-08T12:28:12;99649.53;;;19.36;53.10
79707;BME280;69200;53.612;-2.416;2023-08-08T12:30:37;99651.09;;;19.42;52.11
79707;BME280;69200;53.612;-2.416;2023-08-08T12:33:02;99648.69;;;19.68;52.16
79707;BME280;69200;53.612;-2.416;2023-08-08T12:35:28;99635.19;;;19.52;52.65
79707;BME280;69200;53.612;-2.416;2023-08-08T12:37:54;99633.25;;;19.94;51.29
79707;BME280;69200;53.612;-2.416;2023-08-08T12:40:19;99636.84;;;19.95;51.17
79707;BME280;69200;53.612;-2.416;2023-08-08T12:42:44;99640.59;;;20.62;49.94
79707;BME280;69200;53.612;-2.416;2023-08-08T12:45:10;99641.63;;;20.53;48.68
79707;BME280;69200;53.612;-2.416;2023-08-08T12:47:36;99634.31;;;20.48;47.99
79707;BME280;69200;53.612;-2.416;2023-08-08T12:50:04;99641.25;;;20.46;48.50